Time;durP1;ratioP1;P1;durP2;ratioP2;P2;SDS_P1;SDS_P2;PMS_P1;PMS_P2;Temp;Humidity;BMP_temperature;BMP_pressure;BME280_temperature;BME280_humidity;BME280_pressure;Samples;Min_cycle;Max_cycle;Signal;HPM_P1;HPM_P2
2022/04/29 00:02:29;;;;;;;4.15;3.10;;;;;;;8.83;98.88;100809.25;6194174;28;20058;-81
2022/04/29 00:05:30;;;;;;;4.03;2.88;;;;;;;8.79;100.00;100818.09;6226620;28;20053;-80
2022/04/29 00:08:31;;;;;;;5.72;3.20;;;;;;;8.83;99.45;100813.59;6226515;28;20052;-80
2022/04/29 00:11:33;;;;;;;7.65;3.22;;;;;;;8.86;99.74;100811.72;6226665;28;20049;-80
2022/04/29 00:14:34;;;;;;;6.60;3.60;;;;;;;8.82;100.00;100814.53;6226426;28;20049;-81
2022/04/29 00:17:35;;;;;;;7.43;3.65;;;;;;;8.83;100.00;100809.25;6226267;28;20398;-81
2022/04/29 00:20:38;;;;;;;5.10;3.38;;;;;;;8.80;100.00;100813.75;6226268;28;20100;-80
2022/04/29 00:23:38;;;;;;;8.32;3.85;;;;;;;8.80;100.00;100811.97;6226149;28;20061;-75
2022/04/29 00:26:39;;;;;;;6.75;3.80;;;;;;;8.78;100.00;100805.16;6225982;28;20041;-80
2022/04/29 00:29:41;;;;;;;8.18;3.50;;;;;;;8.78;100.00;100810.34;6225826;28;20049;-80
2022/04/29 00:32:41;;;;;;;7.25;3.75;;;;;;;8.76;100.00;100809.56;6225984;28;20038;-80
2022/04/29 00:35:42;;;;;;;4.60;3.20;;;;;;;8.73;100.00;100802.75;6209610;28;20108;-80
2022/04/29 00:38:43;;;;;;;5.40;3.75;;;;;;;8.69;100.00;100809.00;6208331;28;20046;-75
2022/04/29 00:41:44;;;;;;;7.55;4.03;;;;;;;8.69;100.00;100798.59;6241732;28;20506;-75
2022/04/29 00:44:45;;;;;;;5.63;3.63;;;;;;;8.64;100.00;100797.91;6225064;28;20536;-75
2022/04/29 00:47:48;;;;;;;6.00;3.42;;;;;;;8.72;100.00;100806.25;6226151;28;20037;-74
2022/04/29 00:50:49;;;;;;;9.98;3.80;;;;;;;8.71;100.00;100804.56;6224880;28;20433;-75
2022/04/29 00:53:51;;;;;;;4.65;3.50;;;;;;;8.71;100.00;100801.09;6224833;28;20045;-75
2022/04/29 00:56:54;;;;;;;6.60;3.70;;;;;;;8.73;100.00;100809.69;6226042;28;20046;-75
2022/04/29 01:00:08;;;;;;;8.07;3.80;;;;;;;8.79;100.00;100807.69;6224780;28;20520;-81
2022/04/29 01:03:13;;;;;;;6.05;3.40;;;;;;;8.78;100.00;100799.94;6226505;28;20096;-80
2022/04/29 01:06:14;;;;;;;11.80;3.97;;;;;;;8.72;100.00;100801.03;6225334;28;20042;-81
2022/04/29 01:09:15;;;;;;;5.72;3.72;;;;;;;8.67;100.00;100795.19;6208830;28;20050;-80
2022/04/29 01:12:16;;;;;;;6.97;3.88;;;;;;;8.63;100.00;100799.66;6224851;28;20375;-75
2022/04/29 01:15:18;;;;;;;6.15;3.95;;;;;;;8.64;100.00;100803.09;6208125;28;20103;-75
2022/04/29 01:18:20;;;;;;;8.88;4.13;;;;;;;8.63;100.00;100801.44;6240663;28;20053;-76
2022/04/29 01:21:21;;;;;;;6.30;3.75;;;;;;;8.56;100.00;100808.63;6225185;28;20073;-74
2022/04/29 01:24:21;;;;;;;11.25;4.38;;;;;;;8.56;100.00;100805.19;6224027;28;20042;-75
2022/04/29 01:27:22;;;;;;;5.55;3.67;;;;;;;8.53;100.00;100794.91;6225464;28;20485;-81
2022/04/29 01:30:23;;;;;;;7.82;4.28;;;;;;;8.50;100.00;100797.63;6224514;28;20045;-81
2022/04/29 01:33:28;;;;;;;6.35;3.90;;;;;;;8.52;100.00;100798.41;6225747;28;20038;-81
2022/04/29 01:36:29;;;;;;;8.65;3.90;;;;;;;8.55;100.00;100790.50;6224560;28;20050;-80
2022/04/29 01:39:30;;;;;;;4.97;3.60;;;;;;;8.48;100.00;100795.06;6225622;28;20045;-80
2022/04/29 01:42:32;;;;;;;5.45;3.97;;;;;;;8.47;100.00;100789.03;6208006;28;20057;-80
2022/04/29 01:45:33;;;;;;;6.50;4.07;;;;;;;8.44;100.00;100789.19;6224229;28;20453;-76
2022/04/29 01:48:34;;;;;;;16.63;4.50;;;;;;;8.49;100.00;100796.78;6222754;28;20077;-75
2022/04/29 01:51:34;;;;;;;9.40;4.00;;;;;;;8.52;100.00;100788.00;6225294;28;20050;-81
2022/04/29 01:54:36;;;;;;;7.35;4.53;;;;;;;8.40;100.00;100782.38;6223724;28;20107;-75
2022/04/29 01:57:37;;;;;;;9.85;4.80;;;;;;;8.46;100.00;100781.28;6191102;28;20129;-75
2022/04/29 02:00:39;;;;;;;6.22;4.18;;;;;;;8.47;100.00;100789.03;6224072;28;20049;-75
2022/04/29 02:03:39;;;;;;;5.93;4.17;;;;;;;8.46;100.00;100787.34;6223505;28;20406;-80
2022/04/29 02:06:41;;;;;;;6.65;4.60;;;;;;;8.46;100.00;100789.97;6207053;28;20050;-75
2022/04/29 02:09:42;;;;;;;8.30;4.60;;;;;;;8.41;100.00;100786.69;6224525;28;20080;-80
2022/04/29 02:12:43;;;;;;;9.27;4.68;;;;;;;8.41;100.00;100784.09;6224623;28;20046;-80
2022/04/29 02:15:45;;;;;;;5.82;4.05;;;;;;;8.34;100.00;100789.56;6223334;28;20033;-75
2022/04/29 02:18:46;;;;;;;6.18;4.38;;;;;;;8.33;100.00;100785.28;6223710;28;20061;-80
2022/04/29 02:21:47;;;;;;;8.23;4.55;;;;;;;8.27;100.00;100783.75;6224674;28;20041;-80
2022/04/29 02:24:47;;;;;;;7.57;4.40;;;;;;;8.27;100.00;100788.97;6224464;28;20038;-79
2022/04/29 02:27:48;;;;;;;13.65;4.70;;;;;;;8.29;100.00;100779.34;6223049;28;20045;-80
2022/04/29 02:30:49;;;;;;;6.88;4.10;;;;;;;8.21;100.00;100784.00;6223194;28;20046;-79
2022/04/29 02:33:50;;;;;;;9.27;4.50;;;;;;;8.18;100.00;100786.72;6206662;28;20608;-80
2022/04/29 02:36:52;;;;;;;5.22;4.10;;;;;;;8.23;100.00;100780.44;6206661;28;20062;-80
2022/04/29 02:39:54;;;;;;;5.57;4.32;;;;;;;8.21;100.00;100774.44;6222239;28;20050;-80
2022/04/29 02:42:55;;;;;;;5.93;4.13;;;;;;;8.19;100.00;100781.44;6222539;28;20050;-75
2022/04/29 02:45:55;;;;;;;5.93;4.13;;;;;;;8.26;100.00;100784.69;6222367;28;20284;-75
2022/04/29 02:48:56;;;;;;;5.15;4.07;;;;;;;8.20;100.00;100785.75;6223454;28;20100;-80
2022/04/29 02:51:57;;;;;;;6.22;4.22;;;;;;;8.20;100.00;100787.53;6223913;28;20485;-80
2022/04/29 02:54:58;;;;;;;7.05;4.47;;;;;;;8.22;100.00;100788.31;6222884;28;20121;-80
2022/04/29 02:57:59;;;;;;;6.55;3.97;;;;;;;8.36;98.78;100793.81;6222013;28;20129;-80
2022/04/29 03:01:00;;;;;;;10.23;3.90;;;;;;;8.41;98.52;100798.84;6189836;28;20045;-80
2022/04/29 03:04:01;;;;;;;5.72;4.20;;;;;;;8.43;98.19;100791.84;6206534;28;20038;-80
2022/04/29 03:07:02;;;;;;;8.15;4.28;;;;;;;8.40;97.40;100797.09;6206126;28;20167;-75
2022/04/29 03:10:03;;;;;;;6.05;3.85;;;;;;;8.46;96.38;100799.50;6205692;28;20046;-75
2022/04/29 03:13:04;;;;;;;9.93;4.25;;;;;;;8.43;96.71;100800.47;6206046;28;20494;-80
2022/04/29 03:16:05;;;;;;;6.07;4.18;;;;;;;8.45;95.04;100800.41;6222512;28;20053;-80
2022/04/29 03:19:06;;;;;;;6.25;4.32;;;;;;;8.35;95.99;100799.06;6222488;28;20050;-80
2022/04/29 03:22:07;;;;;;;10.27;4.55;;;;;;;8.35;98.87;100802.50;6221950;28;20430;-75
2022/04/29 03:25:08;;;;;;;7.20;4.32;;;;;;;8.42;94.90;100803.13;6205284;28;20074;-75
2022/04/29 03:28:09;;;;;;;7.72;4.57;;;;;;;8.43;95.84;100804.84;6221803;28;20081;-75
2022/04/29 03:31:10;;;;;;;6.07;4.10;;;;;;;8.33;97.40;100796.50;6205357;28;20045;-75
2022/04/29 03:34:10;;;;;;;7.43;4.20;;;;;;;8.49;95.51;100807.19;6222088;28;20070;-75
2022/04/29 03:37:11;;;;;;;11.68;4.30;;;;;;;8.41;95.95;100807.50;6221504;28;20085;-75
2022/04/29 03:40:14;;;;;;;6.35;4.22;;;;;;;8.46;95.59;100812.50;6204687;28;20479;-75
2022/04/29 03:43:15;;;;;;;6.32;4.00;;;;;;;8.41;93.17;100809.25;6222496;28;20435;-80
2022/04/29 03:46:15;;;;;;;7.18;4.03;;;;;;;8.47;93.67;100809.00;6205555;28;20050;-75
2022/04/29 03:52:52;;;;;;;9.93;4.22;;;;;;;8.53;92.71;100810.53;6221909;28;20096;-80
2022/04/29 03:55:53;;;;;;;10.57;4.03;;;;;;;8.55;92.42;100809.53;6223103;28;20042;-80
2022/04/29 03:58:53;;;;;;;8.77;4.60;;;;;;;8.45;95.75;100803.03;6205303;28;20069;-75
2022/04/29 04:01:54;;;;;;;7.40;4.10;;;;;;;8.47;94.49;100815.03;6221929;28;20076;-75
2022/04/29 04:04:55;;;;;;;6.18;4.03;;;;;;;8.49;93.07;100814.16;6188404;28;20060;-75
2022/04/29 04:07:56;;;;;;;9.70;4.10;;;;;;;8.57;91.55;100809.50;6221736;28;20041;-79
2022/04/29 04:10:57;;;;;;;8.20;3.67;;;;;;;8.61;91.01;100811.91;6225061;28;20548;-79
2022/04/29 04:13:57;;;;;;;8.23;4.43;;;;;;;8.70;91.55;100813.25;6209897;28;20136;-79
2022/04/29 04:16:58;;;;;;;8.98;4.80;;;;;;;8.71;93.52;100809.78;6227363;28;20042;-79
2022/04/29 04:19:59;;;;;;;7.60;4.20;;;;;;;8.65;92.50;100815.22;6226882;28;20124;-75
2022/04/29 04:23:00;;;;;;;9.15;3.95;;;;;;;8.70;92.24;100821.06;6193152;28;20057;-75
2022/04/29 04:26:01;;;;;;;5.65;3.80;;;;;;;8.82;92.10;100828.38;6242362;28;20241;-79
2022/04/29 04:29:02;;;;;;;8.05;4.05;;;;;;;8.87;89.21;100831.66;6226721;28;20050;-75
2022/04/29 04:32:03;;;;;;;8.30;4.50;;;;;;;8.91;89.46;100837.56;6209343;28;20105;-79
2022/04/29 04:35:05;;;;;;;5.53;3.80;;;;;;;8.96;89.96;100826.97;6241981;28;20567;-80
2022/04/29 04:38:06;;;;;;;6.97;3.92;;;;;;;9.07;89.61;100835.16;6226628;28;20061;-79
2022/04/29 04:41:08;;;;;;;10.40;4.45;;;;;;;9.07;86.61;100835.16;6193029;28;20049;-80
2022/04/29 04:44:09;;;;;;;6.82;3.30;;;;;;;9.26;88.82;100845.63;6225851;28;20050;-79
2022/04/29 04:47:10;;;;;;;7.22;4.10;;;;;;;9.28;88.18;100844.66;6225307;28;20137;-75
2022/04/29 04:50:11;;;;;;;6.38;3.38;;;;;;;9.31;86.56;100851.50;6224765;28;20080;-75
2022/04/29 04:53:12;;;;;;;5.22;3.72;;;;;;;9.44;84.69;100855.25;6208965;28;20081;-75
2022/04/29 04:56:15;;;;;;;7.87;3.90;;;;;;;9.55;85.86;100860.00;6241289;28;20057;-75
2022/04/29 04:59:15;;;;;;;;;;;;;;;9.62;85.45;100863.19;6193034;28;20050;-75
2022/04/29 05:02:16;;;;;;;6.25;3.65;;;;;;;9.62;84.57;100856.22;6225929;28;19928;-75
2022/04/29 05:05:17;;;;;;;5.82;3.60;;;;;;;9.68;83.66;100858.56;6224788;28;20093;-79
2022/04/29 05:08:18;;;;;;;4.65;3.45;;;;;;;9.85;84.09;100867.38;6192478;28;20082;-79
2022/04/29 05:11:19;;;;;;;8.80;3.72;;;;;;;9.89;84.51;100869.78;6238061;28;20569;-75
2022/04/29 05:14:20;;;;;;;6.13;3.50;;;;;;;9.97;87.38;100869.44;6223943;28;20041;-75
2022/04/29 05:17:20;;;;;;;5.65;3.60;;;;;;;10.03;83.32;100876.13;6223564;28;20046;-75
2022/04/29 05:20:21;;;;;;;6.78;3.58;;;;;;;10.08;84.23;100879.38;6207209;28;20054;-75
2022/04/29 05:23:27;;;;;;;8.15;4.05;;;;;;;10.23;82.50;100870.84;6222457;28;20047;-75
2022/04/29 05:26:28;;;;;;;6.75;3.63;;;;;;;10.27;82.03;100868.91;6219667;28;20068;-78
2022/04/29 05:29:29;;;;;;;9.48;3.90;;;;;;;10.42;83.60;100872.63;6215663;28;20053;-75
2022/04/29 05:32:31;;;;;;;11.27;3.92;;;;;;;10.46;79.90;100871.56;6247563;28;20055;-75
2022/04/29 05:35:34;;;;;;;5.53;3.45;;;;;;;10.57;79.96;100871.88;6248173;28;20509;-74
2022/04/29 05:45:14;;;;;;;7.38;4.07;;;;;;;10.98;78.40;100863.78;6249401;28;20547;-78
2022/04/29 05:48:15;;;;;;;9.15;4.00;;;;;;;11.04;79.50;100865.25;6251771;28;20049;-75
2022/04/29 05:51:16;;;;;;;5.25;3.63;;;;;;;11.18;76.08;100875.00;6174544;28;20705;-78
2022/04/29 05:54:16;;;;;;;11.52;3.72;;;;;;;11.27;76.46;100870.16;6206598;28;20049;-74
2022/04/29 05:57:17;;;;;;;6.65;3.67;;;;;;;11.45;76.55;100870.16;6205103;28;20059;-78
2022/04/29 06:00:19;;;;;;;6.00;3.63;;;;;;;11.50;74.85;100874.19;6247270;28;20399;-75
2022/04/29 06:03:20;;;;;;;6.50;3.80;;;;;;;11.61;74.12;100878.03;6246999;28;20057;-74
2022/04/29 06:06:21;;;;;;;5.20;3.20;;;;;;;11.66;77.12;100884.72;6247295;28;20052;-78
2022/04/29 06:09:21;;;;;;;5.28;3.22;;;;;;;11.86;76.47;100883.66;6210810;28;20054;-78
2022/04/29 06:12:22;;;;;;;4.63;3.30;;;;;;;11.95;73.95;100889.38;6222424;28;20054;-74
2022/04/29 06:15:23;;;;;;;7.35;3.50;;;;;;;12.07;73.88;100888.72;6219203;28;20054;-79
2022/04/29 06:18:25;;;;;;;7.93;3.92;;;;;;;12.22;74.75;100892.25;6205939;28;20132;-78
2022/04/29 06:21:26;;;;;;;5.10;2.93;;;;;;;12.20;70.32;100889.72;6222099;28;20140;-75
2022/04/29 06:24:26;;;;;;;9.45;3.88;;;;;;;12.33;70.25;100892.50;6189268;28;20568;-79
2022/04/29 06:27:27;;;;;;;6.20;2.65;;;;;;;12.41;70.18;100895.53;6205925;28;20041;-75
2022/04/29 06:30:28;;;;;;;7.03;2.90;;;;;;;12.56;70.01;100906.09;6221828;28;20130;-79
2022/04/29 06:33:30;;;;;;;10.88;4.07;;;;;;;12.71;70.76;100902.63;6221999;28;20037;-74
2022/04/29 06:36:31;;;;;;;6.43;3.60;;;;;;;12.82;70.43;100905.47;6221446;28;20054;-75
2022/04/29 06:39:32;;;;;;;8.63;3.53;;;;;;;12.95;68.31;100899.53;6240338;28;20112;-78
2022/04/29 06:42:45;;;;;;;5.10;3.03;;;;;;;13.04;67.83;100899.84;6189474;28;20049;-79
2022/04/29 06:45:46;;;;;;;4.22;2.85;;;;;;;13.18;66.68;100896.44;6241980;28;20048;-79
2022/04/29 06:48:48;;;;;;;5.07;2.97;;;;;;;13.30;67.78;100902.75;6240682;28;20406;-75
2022/04/29 06:51:49;;;;;;;6.72;3.33;;;;;;;13.54;68.03;100903.06;6208321;28;20077;-78
2022/04/29 06:54:50;;;;;;;10.23;3.05;;;;;;;13.65;65.86;100905.03;6224247;28;20757;-78
2022/04/29 06:57:51;;;;;;;8.10;3.22;;;;;;;13.84;66.94;100904.78;6229293;28;20057;-75
2022/04/29 07:00:52;;;;;;;4.85;3.22;;;;;;;13.88;63.29;100909.75;6204864;28;20521;-74
2022/04/29 07:03:53;;;;;;;9.90;3.35;;;;;;;13.96;64.44;100911.91;6189023;28;20050;-79
2022/04/29 07:06:56;;;;;;;10.95;3.60;;;;;;;14.11;64.74;100907.50;6222710;28;20041;-79
2022/04/29 07:09:57;;;;;;;8.93;3.35;;;;;;;14.25;65.34;100919.75;6207047;28;20041;-74
2022/04/29 07:12:58;;;;;;;6.90;3.17;;;;;;;14.56;63.08;100920.44;6229066;28;20420;-75
2022/04/29 07:15:59;;;;;;;7.70;3.78;;;;;;;14.42;65.32;100918.69;6246723;28;20149;-79
2022/04/29 07:19:00;;;;;;;6.70;2.92;;;;;;;14.52;63.63;100920.63;6229489;28;20042;-75
2022/04/29 07:22:01;;;;;;;9.98;3.30;;;;;;;14.82;63.36;100916.16;6245312;28;20053;-75
2022/04/29 07:25:01;;;;;;;5.45;3.40;;;;;;;14.92;60.88;100917.25;6245680;28;20136;-78
2022/04/29 07:28:03;;;;;;;7.05;3.45;;;;;;;14.82;60.73;100919.63;6278779;28;20141;-74
2022/04/29 07:31:03;;;;;;;7.25;3.22;;;;;;;15.03;61.76;100911.28;6220973;28;20054;-75
2022/04/29 07:34:04;;;;;;;5.63;3.40;;;;;;;15.10;58.92;100912.56;6188319;28;20605;-75
2022/04/29 07:43:44;;;;;;;8.80;3.72;;;;;;;15.73;58.88;100912.75;6246611;28;20412;-74
2022/04/29 07:46:47;;;;;;;6.97;3.47;;;;;;;15.92;57.42;100907.91;6248922;28;20041;-74
2022/04/29 07:49:48;;;;;;;5.75;2.72;;;;;;;15.68;57.69;100907.78;6283092;28;20046;-75
2022/04/29 07:52:49;;;;;;;7.38;3.47;;;;;;;15.95;56.38;100905.03;6266634;28;20425;-78
2022/04/29 07:55:50;;;;;;;9.07;2.75;;;;;;;16.15;59.04;100906.28;6250341;28;20053;-79
2022/04/29 07:58:51;;;;;;;3.83;2.50;;;;;;;16.31;56.30;100908.69;6233619;28;20132;-78
2022/04/29 08:01:51;;;;;;;5.00;3.08;;;;;;;16.28;55.07;100903.63;6250001;28;20055;-79
2022/04/29 08:04:52;;;;;;;3.58;2.78;;;;;;;16.48;57.31;100897.75;6266904;28;20505;-79
2022/04/29 08:07:55;;;;;;;5.85;2.72;;;;;;;16.66;52.76;100905.28;6233116;28;20057;-74
2022/04/29 08:10:56;;;;;;;9.68;2.97;;;;;;;16.57;55.59;100893.59;6249358;28;20573;-74
2022/04/29 08:13:57;;;;;;;4.40;2.95;;;;;;;16.99;53.23;100883.53;6243316;28;20471;-75
2022/04/29 08:16:58;;;;;;;4.78;3.22;;;;;;;16.85;50.55;100897.72;6224986;28;20049;-79
2022/04/29 08:19:59;;;;;;;6.03;3.10;;;;;;;16.82;51.78;100895.34;6224756;28;20050;-75
2022/04/29 08:23:00;;;;;;;3.72;2.80;;;;;;;16.71;50.62;100889.97;6241087;28;20115;-78
2022/04/29 08:26:01;;;;;;;5.38;2.90;;;;;;;16.64;51.82;100892.22;6224781;28;20038;-78
2022/04/29 08:29:02;;;;;;;5.57;2.88;;;;;;;16.82;51.61;100876.88;6208523;28;20062;-79
2022/04/29 08:32:05;;;;;;;3.45;2.50;;;;;;;17.22;51.41;100886.22;6257730;28;20486;-79
2022/04/29 08:35:09;;;;;;;8.65;2.88;;;;;;;17.47;52.85;100872.84;6176813;28;20046;-75
2022/04/29 08:38:11;;;;;;;7.53;2.65;;;;;;;17.79;50.06;100872.16;6208326;28;20521;-74
2022/04/29 08:41:11;;;;;;;3.65;2.80;;;;;;;17.73;47.68;100873.47;6225430;28;20470;-75
2022/04/29 08:44:13;;;;;;;8.23;3.10;;;;;;;17.82;53.50;100874.53;6205509;28;20058;-79
2022/04/29 08:47:15;;;;;;;6.30;2.90;;;;;;;18.30;50.57;100879.56;6226078;28;20073;-79
2022/04/29 08:50:18;;;;;;;6.45;2.55;;;;;;;18.14;47.93;100876.47;6207762;28;20046;-75
2022/04/29 08:53:19;;;;;;;3.88;2.53;;;;;;;18.34;52.73;100872.22;6224153;28;20189;-78
2022/04/29 08:59:42;;;;;;;3.17;2.53;;;;;;;18.29;48.93;100872.59;6238418;28;20045;-78
2022/04/29 09:02:44;;;;;;;3.60;2.53;;;;;;;18.50;46.32;100883.22;6207889;28;20065;-75
2022/04/29 09:05:47;;;;;;;4.53;2.53;;;;;;;18.64;47.44;100876.81;6224796;28;20088;-79
2022/04/29 09:08:49;;;;;;;4.10;2.42;;;;;;;18.64;43.85;100870.69;6224780;28;20048;-75
2022/04/29 09:11:49;;;;;;;;;;;;;;;18.66;45.42;100869.59;6223987;28;20054;-74
2022/04/29 09:15:09;;;;;;;6.78;2.83;;;;;;;18.65;44.68;100864.44;6207050;28;20393;-75
2022/04/29 09:18:10;;;;;;;3.17;2.50;;;;;;;18.86;46.89;100862.69;6232984;28;20504;-78
2022/04/29 09:21:12;;;;;;;6.00;2.47;;;;;;;19.16;44.39;100855.78;6248342;28;20046;-79
2022/04/29 09:24:20;;;;;;;;;;;;;;;18.41;44.13;100852.28;6249437;28;20042;-79
2022/04/29 09:27:21;;;;;;;5.70;2.53;;;;;;;18.65;44.11;100853.84;6231573;28;20020;-74
2022/04/29 09:30:41;;;;;;;9.07;2.70;;;;;;;18.86;42.87;100852.13;6215108;28;20057;-79
2022/04/29 09:33:57;;;;;;;5.03;2.58;;;;;;;19.19;43.94;100846.75;6264143;28;20111;-75
2022/04/29 09:37:13;;;;;;;5.05;2.72;;;;;;;18.58;45.76;100853.53;6264020;28;20049;-79
2022/04/29 09:40:13;;;;;;;4.43;2.42;;;;;;;19.27;44.04;100849.59;6248938;28;20068;-78
2022/04/29 09:43:14;;;;;;;5.23;2.57;;;;;;;19.60;40.28;100847.66;6214649;28;20055;-75
2022/04/29 09:46:23;;;;;;;3.78;2.42;;;;;;;19.80;41.21;100859.22;6230882;28;20528;-75
2022/04/29 09:49:28;;;;;;;3.72;2.38;;;;;;;20.01;41.21;100846.72;6248713;28;20051;-79
2022/04/29 09:52:32;;;;;;;4.22;2.13;;;;;;;19.63;40.77;100845.59;6247631;28;20071;-79
2022/04/29 09:55:33;;;;;;;2.22;1.88;;;;;;;20.30;40.78;100841.50;6247532;28;20045;-79
2022/04/29 09:58:34;;;;;;;4.43;2.00;;;;;;;20.35;36.76;100842.91;6249011;28;20041;-78
2022/04/29 10:01:35;;;;;;;5.13;2.20;;;;;;;20.41;38.07;100848.47;6248656;28;20420;-79
2022/04/29 10:04:39;;;;;;;3.92;2.50;;;;;;;20.83;45.05;100836.78;6247587;28;20037;-78
2022/04/29 10:07:42;;;;;;;5.30;2.25;;;;;;;20.64;39.99;100829.69;6246422;28;20049;-75
2022/04/29 10:10:44;;;;;;;4.20;2.28;;;;;;;21.00;38.46;100829.91;6230208;28;20107;-74
2022/04/29 10:13:45;;;;;;;4.63;2.60;;;;;;;20.86;38.00;100824.09;6247278;28;20571;-74
2022/04/29 10:21:15;;;;;;;4.60;2.27;;;;;;;20.66;38.38;100831.22;6247017;28;20088;-78
2022/04/29 10:23:33;;;;;;;3.22;2.38;;;;;;;21.09;37.51;100819.28;6232483;28;20060;-74
2022/04/29 10:26:34;;;;;;;4.90;2.28;;;;;;;21.36;34.25;100822.16;6213761;28;20076;-74
2022/04/29 10:29:35;;;;;;;3.40;1.90;;;;;;;21.24;36.21;100814.34;6245568;28;20139;-75
2022/04/29 10:33:02;;;;;;;4.53;2.10;;;;;;;21.12;38.88;100821.63;6205364;28;20057;-74
2022/04/29 10:36:08;;;;;;;5.93;2.25;;;;;;;21.42;38.93;100817.13;6223608;28;20323;-79
2022/04/29 10:39:18;;;;;;;10.20;2.20;;;;;;;19.93;40.04;100814.78;6205971;28;20049;-79
2022/04/29 10:42:19;;;;;;;4.93;2.88;;;;;;;19.06;42.56;100805.47;6205823;28;20083;-79
2022/04/29 10:45:20;;;;;;;3.23;2.03;;;;;;;19.83;41.40;100804.19;6205661;28;20049;-79
2022/04/29 10:48:34;;;;;;;3.70;2.37;;;;;;;20.19;37.97;100809.81;6205598;28;20422;-79
2022/04/29 10:52:07;;;;;;;4.18;2.42;;;;;;;20.44;38.98;100799.66;6221505;28;20042;-75
2022/04/29 10:55:21;;;;;;;4.57;2.17;;;;;;;20.09;41.10;100808.97;6217171;28;20471;-79
2022/04/29 10:58:23;;;;;;;2.65;1.95;;;;;;;19.61;42.06;100804.34;6221849;28;20049;-79
2022/04/29 11:01:24;;;;;;;5.68;2.13;;;;;;;20.50;42.43;100802.56;6238277;28;20049;-79
2022/04/29 11:04:25;;;;;;;2.65;2.08;;;;;;;20.56;35.44;100793.22;6221733;28;20068;-79
2022/04/29 11:07:36;;;;;;;5.00;2.00;;;;;;;21.12;35.61;100789.78;6221743;28;20042;-79
2022/04/29 11:10:58;;;;;;;2.85;2.08;;;;;;;20.79;36.40;100787.66;6205264;28;20136;-79
2022/04/29 11:14:00;;;;;;;2.05;1.77;;;;;;;20.42;37.54;100786.53;6221597;28;20042;-79
2022/04/29 11:17:14;;;;;;;3.50;2.10;;;;;;;21.03;34.54;100787.19;6205353;28;20091;-79
2022/04/29 11:20:19;;;;;;;4.70;1.90;;;;;;;21.59;40.27;100775.69;6223946;28;20046;-79
2022/04/29 11:26:52;;;;;;;3.15;1.48;;;;;;;19.87;35.90;100775.59;6231437;28;20486;-78
2022/04/29 11:29:56;;;;;;;4.17;1.83;;;;;;;20.51;34.97;100769.78;6225203;28;20145;-75
2022/04/29 11:32:58;;;;;;;3.05;1.63;;;;;;;21.25;35.04;100757.66;6225550;28;20049;-75
2022/04/29 11:36:10;;;;;;;3.33;1.92;;;;;;;21.17;34.66;100776.13;6225460;28;20054;-79
2022/04/29 11:39:16;;;;;;;3.35;2.00;;;;;;;21.42;33.62;100771.13;6225691;28;20137;-79
2022/04/29 11:42:17;;;;;;;2.58;1.58;;;;;;;20.75;34.87;100773.84;6225853;28;20057;-75
2022/04/29 11:45:22;;;;;;;;;;;;;;;20.27;37.19;100761.44;6242223;28;20057;-75
2022/04/29 11:48:24;;;;;;;2.92;1.77;;;;;;;20.25;35.09;100766.03;6225683;28;20388;-79
2022/04/29 11:51:30;;;;;;;3.03;2.13;;;;;;;20.54;34.66;100764.19;6225495;28;20042;-79
2022/04/29 11:54:31;;;;;;;2.17;1.77;;;;;;;20.93;36.07;100750.06;6226656;28;20041;-78
2022/04/29 11:57:34;;;;;;;3.73;1.63;;;;;;;21.69;35.25;100754.41;6225638;28;20049;-79
2022/04/29 12:00:35;;;;;;;2.60;1.70;;;;;;;22.17;34.89;100752.38;6225663;28;20052;-78
2022/04/29 12:03:46;;;;;;;1.93;1.57;;;;;;;21.57;33.80;100737.00;6258405;28;20050;-79
2022/04/29 12:06:57;;;;;;;2.47;1.75;;;;;;;21.58;34.78;100741.31;6225110;28;20413;-75
2022/04/29 12:09:59;;;;;;;3.93;1.80;;;;;;;21.99;34.96;100737.28;6241362;28;20498;-78
2022/04/29 12:13:02;;;;;;;3.03;1.77;;;;;;;21.17;33.52;100738.97;6224990;28;20111;-74
2022/04/29 12:16:04;;;;;;;3.00;1.70;;;;;;;21.03;34.36;100734.97;6224559;28;20215;-75
2022/04/29 12:19:17;;;;;;;5.15;1.73;;;;;;;20.97;34.94;100730.25;6224759;28;20052;-74
2022/04/29 12:22:29;;;;;;;3.55;2.03;;;;;;;20.91;36.43;100728.16;6241072;28;20057;-75
2022/04/29 12:25:37;;;;;;;1.50;1.40;;;;;;;20.39;34.67;100736.47;6224575;28;20391;-75
2022/04/29 12:28:38;;;;;;;3.97;1.67;;;;;;;20.06;35.25;100732.44;6257272;28;20054;-75
2022/04/29 12:35:13;;;;;;;4.60;1.85;;;;;;;20.12;36.44;100722.09;6224456;28;20037;-75
2022/04/29 12:38:18;;;;;;;3.10;1.73;;;;;;;20.09;37.35;100721.53;6223996;28;20082;-75
2022/04/29 12:41:27;;;;;;;4.10;1.90;;;;;;;19.97;35.47;100710.22;6227147;28;20103;-78
2022/04/29 12:48:07;;;;;;;1.92;1.27;;;;;;;19.44;35.45;100710.56;6225663;28;20061;-75
2022/04/29 12:51:22;;;;;;;1.70;1.45;;;;;;;19.29;35.87;100705.63;6224122;28;20048;-75
2022/04/29 12:54:25;;;;;;;2.72;1.50;;;;;;;18.83;35.97;100701.66;6240560;28;20054;-75
2022/04/29 12:57:31;;;;;;;4.90;1.63;;;;;;;18.60;34.67;100700.97;6223750;28;20054;-75
2022/04/29 13:00:34;;;;;;;4.90;1.38;;;;;;;18.50;34.83;100692.97;6207811;28;20145;-74
2022/04/29 13:03:35;;;;;;;7.50;1.30;;;;;;;18.56;33.85;100688.13;6245484;28;20486;-74
2022/04/29 13:06:36;;;;;;;4.03;1.80;;;;;;;19.10;34.04;100677.28;6248227;28;20052;-77
2022/04/29 13:09:37;;;;;;;6.68;1.55;;;;;;;19.63;33.34;100685.94;6248350;28;20045;-75
2022/04/29 13:12:38;;;;;;;2.67;1.42;;;;;;;20.17;33.05;100667.88;6231647;28;20156;-75
2022/04/29 13:15:41;;;;;;;2.83;1.73;;;;;;;20.23;33.79;100672.59;6248093;28;20440;-75
2022/04/29 13:18:43;;;;;;;3.75;1.42;;;;;;;20.57;37.04;100670.31;6247933;28;20076;-77
2022/04/29 13:21:44;;;;;;;3.33;1.58;;;;;;;20.42;31.77;100672.56;6265060;28;20413;-77
2022/04/29 13:24:45;;;;;;;2.27;1.47;;;;;;;20.12;31.73;100674.44;6247889;28;20076;-74
2022/04/29 13:27:46;;;;;;;5.80;1.30;;;;;;;20.20;32.44;100660.47;6231272;28;20413;-73
2022/04/29 13:30:47;;;;;;;3.67;1.47;;;;;;;19.92;31.40;100660.34;6247816;28;20063;-74
2022/04/29 13:33:48;;;;;;;2.27;1.60;;;;;;;19.96;31.77;100666.19;6247773;28;20099;-74
2022/04/29 13:36:49;;;;;;;2.00;1.55;;;;;;;20.21;31.67;100648.06;6248654;28;20464;-74
2022/04/29 13:39:50;;;;;;;1.83;1.30;;;;;;;20.41;34.89;100652.34;6247613;28;20103;-73
2022/04/29 13:42:54;;;;;;;3.42;1.48;;;;;;;20.41;35.39;100640.91;6246980;28;20119;-73
2022/04/29 13:45:56;;;;;;;3.45;1.77;;;;;;;20.71;33.91;100647.81;6231383;28;20117;-77
2022/04/29 13:48:57;;;;;;;2.97;1.58;;;;;;;20.71;32.63;100648.69;6263960;28;20091;-74
2022/04/29 13:53:07;;;;;;;7.10;1.50;;;;;;;20.64;31.50;100650.22;6247265;28;20053;-74
2022/04/29 13:55:19;;;;;;;2.30;1.52;;;;;;;20.42;31.88;100651.34;6248417;28;20501;-74
2022/04/29 13:58:22;;;;;;;3.55;1.45;;;;;;;20.53;32.94;100648.56;6230604;28;20052;-74
2022/04/29 14:01:24;;;;;;;3.10;1.58;;;;;;;20.37;32.51;100642.19;6247136;28;20099;-77
2022/04/29 14:04:25;;;;;;;3.35;1.30;;;;;;;20.00;31.43;100645.56;6247110;28;20038;-77
2022/04/29 14:07:25;;;;;;;2.60;1.30;;;;;;;19.90;32.35;100637.63;6248410;28;20266;-77
2022/04/29 14:10:26;;;;;;;1.97;1.53;;;;;;;20.03;32.71;100640.81;6230552;28;20732;-77
2022/04/29 14:13:28;;;;;;;3.45;1.50;;;;;;;20.08;33.29;100640.41;6248050;28;20041;-77
2022/04/29 14:16:29;;;;;;;3.05;1.60;;;;;;;20.09;30.71;100632.31;6246837;28;20046;-77
2022/04/29 14:19:31;;;;;;;1.20;1.10;;;;;;;20.38;33.13;100630.59;6214034;28;20445;-77
2022/04/29 14:22:32;;;;;;;6.25;1.50;;;;;;;20.25;31.79;100629.09;6212537;28;20156;-77
2022/04/29 14:25:33;;;;;;;2.17;1.55;;;;;;;20.24;31.89;100630.06;6238983;28;20064;-77
2022/04/29 14:28:33;;;;;;;4.20;1.53;;;;;;;20.10;32.43;100630.50;6223268;28;20041;-77
2022/04/29 14:31:34;;;;;;;2.87;1.20;;;;;;;20.00;31.72;100634.97;6221689;28;20410;-74
2022/04/29 14:34:35;;;;;;;4.33;1.67;;;;;;;19.88;32.85;100636.94;6189600;28;20050;-78
2022/04/29 14:37:37;;;;;;;3.27;1.33;;;;;;;19.93;32.77;100627.59;6205044;28;20065;-77
2022/04/29 14:40:38;;;;;;;2.00;1.27;;;;;;;19.82;29.54;100622.44;6222101;28;20045;-77
2022/04/29 14:43:39;;;;;;;1.40;1.27;;;;;;;19.86;30.83;100630.94;6205518;28;20049;-74
2022/04/29 14:46:41;;;;;;;2.45;1.40;;;;;;;19.72;29.13;100624.25;6205246;28;20089;-74